AMX015 SULS-SABE
Flight info
| Callsign | AMX015 |
|---|---|
| Flight time | 0h 36m |
| Altitude | 24000 |
| Route | LUCIO A306 UGIMI UGIMI8Q |
| Aircraft | B738/M-SDGIJ1LRWY/SB1 |
Departure
| Time | 2026-04-30 04:42 |
|---|---|
| Airport | Capitan Corbeta CA Curbelo International Airport (SULS) |
Arrival
| Time | 2026-04-30 05:19 |
|---|---|
| Airport | Aeroparque Jorge Newbery (SABE) |
| Time | Latitude | Longitude | Altitude | Speed | Heading |
|---|---|---|---|---|---|
| 2026-04-30 04:22 | -34.85972 | -55.09890 | 96 ft | 0 kts | 164° |
| 2026-04-30 04:36 | -34.85988 | -55.09880 | 96 ft | 3 kts | 140° |
| 2026-04-30 04:36 | -34.85992 | -55.09835 | 96 ft | 9 kts | 68° |
| 2026-04-30 04:37 | -34.85915 | -55.09806 | 94 ft | 14 kts | 343° |
| 2026-04-30 04:37 | -34.85842 | -55.09834 | 93 ft | 6 kts | 340° |
| 2026-04-30 04:37 | -34.85783 | -55.09860 | 91 ft | 10 kts | 341° |
| 2026-04-30 04:37 | -34.85742 | -55.09876 | 90 ft | 0 kts | 341° |
| 2026-04-30 04:39 | -34.85741 | -55.09876 | 90 ft | 1 kts | 341° |
| 2026-04-30 04:39 | -34.85701 | -55.09893 | 88 ft | 12 kts | 341° |
| 2026-04-30 04:39 | -34.85625 | -55.09818 | 86 ft | 18 kts | 71° |
| 2026-04-30 04:39 | -34.85574 | -55.09639 | 84 ft | 25 kts | 71° |
| 2026-04-30 04:40 | -34.85514 | -55.09417 | 81 ft | 30 kts | 71° |
| 2026-04-30 04:40 | -34.85461 | -55.09199 | 79 ft | 23 kts | 75° |
| 2026-04-30 04:40 | -34.85446 | -55.09052 | 77 ft | 12 kts | 99° |
| 2026-04-30 04:40 | -34.85426 | -55.09024 | 77 ft | 5 kts | 328° |
| 2026-04-30 04:41 | -34.85429 | -55.09073 | 77 ft | 6 kts | 250° |
| 2026-04-30 04:41 | -34.85444 | -55.09129 | 78 ft | 7 kts | 253° |
| 2026-04-30 04:41 | -34.85497 | -55.09332 | 80 ft | 53 kts | 252° |
| 2026-04-30 04:41 | -34.85677 | -55.10028 | 87 ft | 129 kts | 252° |
| 2026-04-30 04:42 | -34.86042 | -55.11314 | 554 ft | 176 kts | 247° |
| 2026-04-30 04:42 | -34.86521 | -55.12561 | 1881 ft | 167 kts | 239° |
| 2026-04-30 04:42 | -34.87096 | -55.13776 | 2597 ft | 178 kts | 243° |
| 2026-04-30 04:42 | -34.87400 | -55.15255 | 3406 ft | 185 kts | 267° |
| 2026-04-30 04:43 | -34.87354 | -55.16875 | 4005 ft | 204 kts | 267° |
| 2026-04-30 04:43 | -34.87582 | -55.18653 | 4574 ft | 226 kts | 255° |
| 2026-04-30 04:43 | -34.88132 | -55.20520 | 5359 ft | 241 kts | 246° |
| 2026-04-30 04:43 | -34.88805 | -55.22333 | 6352 ft | 246 kts | 246° |
| 2026-04-30 04:44 | -34.89477 | -55.24327 | 7198 ft | 258 kts | 250° |
| 2026-04-30 04:44 | -34.90022 | -55.26334 | 8337 ft | 257 kts | 253° |
| 2026-04-30 04:44 | -34.90519 | -55.28448 | 9247 ft | 265 kts | 254° |
| 2026-04-30 04:44 | -34.91037 | -55.30593 | 10269 ft | 268 kts | 253° |
| 2026-04-30 04:45 | -34.91589 | -55.32775 | 11029 ft | 280 kts | 253° |
| 2026-04-30 04:45 | -34.92188 | -55.35091 | 11706 ft | 295 kts | 252° |
| 2026-04-30 04:45 | -34.92820 | -55.37518 | 12483 ft | 307 kts | 253° |
| 2026-04-30 04:45 | -34.93465 | -55.40003 | 13452 ft | 313 kts | 253° |
| 2026-04-30 04:46 | -34.94111 | -55.42497 | 14502 ft | 316 kts | 253° |
| 2026-04-30 04:46 | -34.94763 | -55.45020 | 15592 ft | 318 kts | 253° |
| 2026-04-30 04:46 | -34.95424 | -55.47581 | 16694 ft | 319 kts | 253° |
| 2026-04-30 04:46 | -34.96085 | -55.50142 | 17632 ft | 323 kts | 253° |
| 2026-04-30 04:47 | -34.96750 | -55.52730 | 18610 ft | 325 kts | 253° |
| 2026-04-30 04:47 | -34.97419 | -55.55329 | 19651 ft | 325 kts | 253° |
| 2026-04-30 04:47 | -34.98094 | -55.57957 | 20606 ft | 326 kts | 252° |
| 2026-04-30 04:47 | -34.98770 | -55.60589 | 21522 ft | 327 kts | 252° |
| 2026-04-30 04:48 | -34.99443 | -55.63207 | 22310 ft | 331 kts | 252° |
| 2026-04-30 04:48 | -35.00130 | -55.65887 | 23174 ft | 332 kts | 252° |
| 2026-04-30 04:48 | -35.00820 | -55.68583 | 23730 ft | 334 kts | 252° |
| 2026-04-30 04:48 | -35.01508 | -55.71267 | 23977 ft | 338 kts | 252° |
| 2026-04-30 04:49 | -35.02210 | -55.74011 | 23989 ft | 336 kts | 252° |
| 2026-04-30 04:49 | -35.02896 | -55.76699 | 23998 ft | 334 kts | 252° |
| 2026-04-30 04:49 | -35.03593 | -55.79431 | 23997 ft | 336 kts | 252° |
| 2026-04-30 04:49 | -35.04281 | -55.82135 | 23991 ft | 335 kts | 252° |
| 2026-04-30 04:50 | -35.04911 | -55.84871 | 23989 ft | 336 kts | 256° |
| 2026-04-30 04:50 | -35.05243 | -55.87680 | 23995 ft | 338 kts | 263° |
| 2026-04-30 04:50 | -35.05284 | -55.90535 | 23989 ft | 339 kts | 267° |
| 2026-04-30 04:50 | -35.05157 | -55.93426 | 23993 ft | 339 kts | 270° |
| 2026-04-30 04:51 | -35.04965 | -55.96283 | 23997 ft | 342 kts | 270° |
| 2026-04-30 04:51 | -35.04752 | -55.99188 | 24000 ft | 341 kts | 270° |
| 2026-04-30 04:51 | -35.04539 | -56.02041 | 23994 ft | 340 kts | 270° |
| 2026-04-30 04:51 | -35.04332 | -56.04895 | 23994 ft | 340 kts | 270° |
| 2026-04-30 04:52 | -35.04126 | -56.07778 | 24003 ft | 341 kts | 270° |
| 2026-04-30 04:52 | -35.03927 | -56.10627 | 23995 ft | 339 kts | 270° |
| 2026-04-30 04:52 | -35.03727 | -56.13480 | 23999 ft | 338 kts | 270° |
| 2026-04-30 04:52 | -35.03527 | -56.16347 | 23997 ft | 339 kts | 270° |
| 2026-04-30 04:53 | -35.03326 | -56.19214 | 23994 ft | 341 kts | 270° |
| 2026-04-30 04:53 | -35.03125 | -56.22081 | 23998 ft | 341 kts | 270° |
| 2026-04-30 04:53 | -35.02922 | -56.24963 | 23992 ft | 341 kts | 270° |
| 2026-04-30 04:53 | -35.02719 | -56.27825 | 23993 ft | 340 kts | 270° |
| 2026-04-30 04:54 | -35.02513 | -56.30707 | 23991 ft | 340 kts | 270° |
| 2026-04-30 04:54 | -35.02309 | -56.33556 | 23995 ft | 341 kts | 270° |
| 2026-04-30 04:54 | -35.02103 | -56.36451 | 23988 ft | 341 kts | 270° |
| 2026-04-30 04:54 | -35.01900 | -56.39303 | 23992 ft | 341 kts | 270° |
| 2026-04-30 04:55 | -35.01694 | -56.42164 | 23989 ft | 341 kts | 270° |
| 2026-04-30 04:55 | -35.01485 | -56.45058 | 23986 ft | 341 kts | 270° |
| 2026-04-30 04:55 | -35.01277 | -56.47921 | 23987 ft | 340 kts | 270° |
| 2026-04-30 04:55 | -35.01067 | -56.50809 | 23985 ft | 341 kts | 270° |
| 2026-04-30 04:56 | -35.00859 | -56.53674 | 23986 ft | 342 kts | 270° |
| 2026-04-30 04:56 | -35.00648 | -56.56539 | 23986 ft | 341 kts | 270° |
| 2026-04-30 04:56 | -35.00437 | -56.59410 | 23991 ft | 339 kts | 270° |
| 2026-04-30 04:56 | -35.00227 | -56.62271 | 23988 ft | 340 kts | 270° |
| 2026-04-30 04:57 | -35.00016 | -56.65126 | 23988 ft | 339 kts | 270° |
| 2026-04-30 04:57 | -34.99804 | -56.67985 | 23990 ft | 339 kts | 270° |
| 2026-04-30 04:57 | -34.99593 | -56.70821 | 23989 ft | 338 kts | 270° |
| 2026-04-30 04:57 | -34.99381 | -56.73671 | 23996 ft | 338 kts | 270° |
| 2026-04-30 04:58 | -34.99168 | -56.76526 | 23999 ft | 338 kts | 270° |
| 2026-04-30 04:58 | -34.98953 | -56.79395 | 24004 ft | 339 kts | 270° |
| 2026-04-30 04:58 | -34.98740 | -56.82227 | 24002 ft | 337 kts | 270° |
| 2026-04-30 04:58 | -34.98524 | -56.85086 | 24002 ft | 337 kts | 270° |
| 2026-04-30 04:59 | -34.98310 | -56.87933 | 24005 ft | 339 kts | 270° |
| 2026-04-30 04:59 | -34.98174 | -56.90774 | 24006 ft | 336 kts | 267° |
| 2026-04-30 04:59 | -34.98148 | -56.93622 | 24005 ft | 335 kts | 266° |
| 2026-04-30 04:59 | -34.97913 | -56.96433 | 24007 ft | 343 kts | 277° |
| 2026-04-30 05:00 | -34.97131 | -56.99233 | 24011 ft | 349 kts | 285° |
| 2026-04-30 05:00 | -34.96131 | -57.01925 | 24004 ft | 352 kts | 288° |
| 2026-04-30 05:00 | -34.95055 | -57.04607 | 24008 ft | 354 kts | 289° |
| 2026-04-30 05:00 | -34.93960 | -57.07263 | 24004 ft | 352 kts | 289° |
| 2026-04-30 05:01 | -34.92853 | -57.09922 | 24008 ft | 352 kts | 289° |
| 2026-04-30 05:01 | -34.91753 | -57.12564 | 24006 ft | 353 kts | 289° |
| 2026-04-30 05:01 | -34.90647 | -57.15218 | 23976 ft | 351 kts | 289° |
| 2026-04-30 05:01 | -34.89541 | -57.17836 | 23875 ft | 336 kts | 289° |
| 2026-04-30 05:02 | -34.88530 | -57.20305 | 23614 ft | 322 kts | 285° |
| 2026-04-30 05:02 | -34.87748 | -57.22784 | 22804 ft | 314 kts | 281° |
| 2026-04-30 05:02 | -34.87105 | -57.25294 | 21912 ft | 309 kts | 280° |
| 2026-04-30 05:02 | -34.86528 | -57.27763 | 20948 ft | 306 kts | 279° |
| 2026-04-30 05:03 | -34.85988 | -57.30214 | 19994 ft | 304 kts | 279° |
| 2026-04-30 05:03 | -34.85458 | -57.32694 | 19041 ft | 301 kts | 279° |
| 2026-04-30 05:03 | -34.84963 | -57.35111 | 18094 ft | 299 kts | 279° |
| 2026-04-30 05:03 | -34.84480 | -57.37563 | 17152 ft | 297 kts | 279° |
| 2026-04-30 05:04 | -34.84023 | -57.39956 | 16200 ft | 296 kts | 279° |
| 2026-04-30 05:04 | -34.83575 | -57.42381 | 15259 ft | 294 kts | 279° |
| 2026-04-30 05:04 | -34.83140 | -57.44779 | 14375 ft | 292 kts | 279° |
| 2026-04-30 05:04 | -34.82716 | -57.47121 | 13939 ft | 276 kts | 279° |
| 2026-04-30 05:05 | -34.82304 | -57.49402 | 13644 ft | 287 kts | 279° |
| 2026-04-30 05:05 | -34.81876 | -57.51827 | 13137 ft | 294 kts | 279° |
| 2026-04-30 05:05 | -34.81456 | -57.54229 | 12710 ft | 289 kts | 279° |
| 2026-04-30 05:06 | -34.80647 | -57.58927 | 11867 ft | 281 kts | 279° |
| 2026-04-30 05:06 | -34.80250 | -57.61254 | 11453 ft | 280 kts | 279° |
| 2026-04-30 05:06 | -34.79856 | -57.63584 | 11034 ft | 287 kts | 279° |
| 2026-04-30 05:06 | -34.79463 | -57.65947 | 10598 ft | 285 kts | 279° |
| 2026-04-30 05:07 | -34.79072 | -57.68291 | 10270 ft | 277 kts | 279° |
| 2026-04-30 05:07 | -34.78698 | -57.70518 | 10150 ft | 264 kts | 279° |
| 2026-04-30 05:07 | -34.78338 | -57.72662 | 9948 ft | 255 kts | 280° |
| 2026-04-30 05:07 | -34.77990 | -57.74752 | 9584 ft | 255 kts | 279° |
| 2026-04-30 05:08 | -34.77639 | -57.76868 | 9237 ft | 252 kts | 279° |
| 2026-04-30 05:08 | -34.77298 | -57.78940 | 8902 ft | 249 kts | 279° |
| 2026-04-30 05:08 | -34.76954 | -57.81015 | 8567 ft | 254 kts | 279° |
| 2026-04-30 05:08 | -34.76611 | -57.83122 | 8248 ft | 254 kts | 279° |
| 2026-04-30 05:09 | -34.76274 | -57.85212 | 7893 ft | 252 kts | 279° |
| 2026-04-30 05:09 | -34.75941 | -57.87289 | 7562 ft | 248 kts | 279° |
| 2026-04-30 05:09 | -34.75618 | -57.89315 | 7216 ft | 245 kts | 279° |
| 2026-04-30 05:09 | -34.75294 | -57.91359 | 6904 ft | 250 kts | 279° |
| 2026-04-30 05:10 | -34.74958 | -57.93456 | 6679 ft | 247 kts | 280° |
| 2026-04-30 05:10 | -34.74620 | -57.95452 | 6484 ft | 240 kts | 281° |
| 2026-04-30 05:10 | -34.74256 | -57.97413 | 6077 ft | 242 kts | 282° |
| 2026-04-30 05:10 | -34.73835 | -57.99411 | 5553 ft | 247 kts | 284° |
| 2026-04-30 05:11 | -34.73358 | -58.01418 | 5125 ft | 248 kts | 286° |
| 2026-04-30 05:11 | -34.72711 | -58.03323 | 4930 ft | 241 kts | 296° |
| 2026-04-30 05:11 | -34.71909 | -58.05093 | 4657 ft | 237 kts | 298° |
| 2026-04-30 05:11 | -34.71095 | -58.06764 | 4605 ft | 224 kts | 300° |
| 2026-04-30 05:12 | -34.70285 | -58.08401 | 4352 ft | 222 kts | 300° |
| 2026-04-30 05:12 | -34.69516 | -58.09995 | 4112 ft | 216 kts | 297° |
| 2026-04-30 05:12 | -34.68922 | -58.11628 | 3896 ft | 209 kts | 290° |
| 2026-04-30 05:12 | -34.68427 | -58.13263 | 3709 ft | 202 kts | 288° |
| 2026-04-30 05:13 | -34.67983 | -58.14855 | 3526 ft | 199 kts | 288° |
| 2026-04-30 05:13 | -34.67480 | -58.16421 | 3351 ft | 201 kts | 292° |
| 2026-04-30 05:13 | -34.66917 | -58.17988 | 3167 ft | 200 kts | 292° |
| 2026-04-30 05:13 | -34.66403 | -58.19552 | 3000 ft | 196 kts | 290° |
| 2026-04-30 05:14 | -34.65940 | -58.21039 | 2952 ft | 182 kts | 289° |
| 2026-04-30 05:14 | -34.65533 | -58.22452 | 2964 ft | 177 kts | 287° |
| 2026-04-30 05:14 | -34.65165 | -58.23884 | 2964 ft | 176 kts | 285° |
| 2026-04-30 05:14 | -34.64776 | -58.25289 | 2967 ft | 175 kts | 294° |
| 2026-04-30 05:15 | -34.64241 | -58.26611 | 2934 ft | 175 kts | 296° |
| 2026-04-30 05:15 | -34.63621 | -58.27899 | 2762 ft | 176 kts | 303° |
| 2026-04-30 05:15 | -34.62939 | -58.29135 | 2535 ft | 179 kts | 303° |
| 2026-04-30 05:15 | -34.62242 | -58.30384 | 2276 ft | 178 kts | 304° |
| 2026-04-30 05:16 | -34.61540 | -58.31638 | 2019 ft | 177 kts | 303° |
| 2026-04-30 05:16 | -34.60847 | -58.32854 | 1758 ft | 177 kts | 306° |
| 2026-04-30 05:16 | -34.60112 | -58.34025 | 1613 ft | 163 kts | 306° |
| 2026-04-30 05:16 | -34.59450 | -58.35112 | 1508 ft | 162 kts | 304° |
| 2026-04-30 05:17 | -34.58853 | -58.36259 | 1120 ft | 162 kts | 302° |
| 2026-04-30 05:17 | -34.58234 | -58.37369 | 737 ft | 156 kts | 304° |
| 2026-04-30 05:17 | -34.57635 | -58.38432 | 515 ft | 152 kts | 303° |
| 2026-04-30 05:17 | -34.57056 | -58.39528 | 304 ft | 152 kts | 302° |
| 2026-04-30 05:18 | -34.56471 | -58.40585 | 101 ft | 150 kts | 304° |
| 2026-04-30 05:18 | -34.55903 | -58.41607 | 30 ft | 143 kts | 304° |
| 2026-04-30 05:18 | -34.55421 | -58.42524 | 28 ft | 105 kts | 294° |
| 2026-04-30 05:18 | -34.55021 | -58.42955 | 21 ft | 52 kts | 256° |
| 2026-04-30 05:19 | -34.54979 | -58.43035 | 17 ft | 0 kts | 61° |
| 2026-04-30 05:19 | -34.54978 | -58.43035 | 17 ft | 0 kts | 62° |